createdAt,value
2023-04-12T00:05:03.425Z,100119.94
2023-04-12T00:10:11.486Z,100123.50
2023-04-12T00:15:18.792Z,100127.78
2023-04-12T00:20:27.671Z,100133.84
2023-04-12T00:25:33.932Z,100117.25
2023-04-12T00:30:41.557Z,100097.41
2023-04-12T00:35:49.526Z,100113.28
2023-04-12T00:40:56.162Z,100123.81
2023-04-12T00:46:03.477Z,100117.75
2023-04-12T00:51:11.647Z,100109.84
2023-04-12T00:56:18.471Z,100103.78
2023-04-12T01:01:25.082Z,100107.25
2023-04-12T01:06:49.518Z,100115.22
2023-04-12T01:12:10.034Z,100110.81
2023-04-12T01:17:25.333Z,100108.13
2023-04-12T01:22:59.155Z,100108.97
2023-04-12T01:28:11.077Z,100111.56
2023-04-12T01:33:20.058Z,100094.19
2023-04-12T01:38:26.796Z,100094.19
2023-04-12T01:43:34.715Z,100092.50
2023-04-12T01:48:41.228Z,100082.84
2023-04-12T01:53:56.669Z,100080.34
2023-04-12T01:59:05.782Z,100086.47
2023-04-12T02:04:13.297Z,100088.22
2023-04-12T02:09:19.849Z,100081.22
2023-04-12T02:14:28.349Z,100090.00
2023-04-12T02:19:34.745Z,100085.56
2023-04-12T02:24:41.952Z,100080.44
2023-04-12T02:29:49.852Z,100090.06
2023-04-12T02:34:59.421Z,100085.75
2023-04-12T02:40:08.584Z,100093.50
2023-04-12T02:45:19.580Z,100086.63
2023-04-12T02:50:26.138Z,100083.16
2023-04-12T02:55:40.997Z,100083.22
2023-04-12T03:00:51.367Z,100091.03
2023-04-12T03:06:04.082Z,100091.09
2023-04-12T03:11:12.432Z,100074.59
2023-04-12T03:16:30.369Z,100086.75
2023-04-12T03:21:47.338Z,100081.59
2023-04-12T03:26:54.276Z,100078.09
2023-04-12T03:32:07.095Z,100083.28
2023-04-12T03:37:16.033Z,100092.00
2023-04-12T03:42:32.204Z,100099.91
2023-04-12T03:47:48.684Z,100097.34
2023-04-12T03:52:57.412Z,100104.31
2023-04-12T03:58:10.180Z,100096.50
2023-04-12T04:03:27.272Z,100107.75
2023-04-12T04:08:47.796Z,100102.53
2023-04-12T04:13:54.935Z,100098.25
2023-04-12T04:19:03.479Z,100104.28
2023-04-12T04:24:11.884Z,100106.84
2023-04-12T04:29:24.093Z,100107.69
2023-04-12T04:34:32.349Z,100114.56
2023-04-12T04:39:49.112Z,100120.63
2023-04-12T04:45:02.881Z,100112.81
2023-04-12T04:50:15.160Z,100119.66
2023-04-12T04:55:22.807Z,100112.69
2023-04-12T05:00:30.739Z,100110.94
2023-04-12T05:05:40.781Z,100109.19
2023-04-12T05:10:54.091Z,100119.56
2023-04-12T05:16:08.590Z,100117.75
2023-04-12T05:21:17.149Z,100115.94
2023-04-12T05:26:24.522Z,100115.91
2023-04-12T05:31:32.708Z,100132.38
2023-04-12T05:36:44.973Z,100137.50
2023-04-12T05:41:51.530Z,100138.34
2023-04-12T05:46:57.965Z,100136.53
2023-04-12T05:52:07.791Z,100148.59
2023-04-12T05:57:16.238Z,100150.28
2023-04-12T06:02:26.432Z,100149.38
2023-04-12T06:07:35.367Z,100144.31
2023-04-12T06:12:42.083Z,100149.34
2023-04-12T06:17:48.801Z,100149.25
2023-04-12T06:22:56.614Z,100136.16
2023-04-12T06:28:03.041Z,100137.81
2023-04-12T06:33:11.761Z,100129.97
2023-04-12T06:38:21.034Z,100130.78
2023-04-12T06:43:27.527Z,100135.09
2023-04-12T06:48:34.005Z,100140.03
2023-04-12T06:53:42.285Z,100148.72
2023-04-12T06:58:48.917Z,100146.03
2023-04-12T07:03:55.786Z,100141.59
2023-04-12T07:09:03.663Z,100145.84
2023-04-12T07:14:09.869Z,100152.66
2023-04-12T07:19:16.900Z,100143.97
2023-04-12T07:24:24.977Z,100145.44
2023-04-12T07:29:31.763Z,100144.47
2023-04-12T07:34:39.938Z,100146.00
2023-04-12T07:39:48.056Z,100142.34
2023-04-12T07:44:54.415Z,100142.31
2023-04-12T07:50:00.949Z,100138.75
2023-04-12T07:55:11.634Z,100155.28
2023-04-12T08:00:19.360Z,100150.25
2023-04-12T08:05:26.058Z,100150.94
2023-04-12T08:10:34.502Z,100156.13
2023-04-12T08:15:41.178Z,100151.63
2023-04-12T08:20:49.484Z,100144.66
2023-04-12T08:26:03.857Z,100144.56
2023-04-12T08:31:10.609Z,100142.63
2023-04-12T08:36:17.047Z,100143.34
2023-04-12T08:41:25.057Z,100139.75
2023-04-12T08:46:31.802Z,100148.94
2023-04-12T08:51:38.605Z,100147.06
2023-04-12T08:56:47.191Z,100148.41
2023-04-12T09:01:54.747Z,100148.31
2023-04-12T09:07:01.336Z,100147.84
2023-04-12T09:12:12.101Z,100152.97
2023-04-12T09:17:26.324Z,100161.50
2023-04-12T09:22:39.241Z,100155.13
2023-04-12T09:27:51.873Z,100159.50
2023-04-12T09:32:58.371Z,100153.91
2023-04-12T09:38:10.414Z,100148.31
2023-04-12T09:43:18.587Z,100141.06
2023-04-12T09:48:26.725Z,100142.56
2023-04-12T09:53:35.818Z,100127.50
2023-04-12T09:58:44.301Z,100115.38
2023-04-12T10:03:52.227Z,100119.25
2023-04-12T10:09:03.104Z,100123.78
2023-04-12T10:14:12.096Z,100129.91
2023-04-12T10:19:19.294Z,100127.09
2023-04-12T10:24:27.491Z,100129.38
2023-04-12T10:29:38.957Z,100123.41
2023-04-12T10:34:47.012Z,100123.41
2023-04-12T10:39:57.175Z,100128.84
2023-04-12T10:45:41.467Z,100120.00
2023-04-12T10:50:47.981Z,100132.09
2023-04-12T10:55:56.318Z,100133.66
2023-04-12T11:01:19.042Z,100130.78
2023-04-12T11:06:44.666Z,100127.31
2023-04-12T11:12:17.540Z,100120.06
2023-04-12T11:17:28.792Z,100122.59
2023-04-12T11:22:35.712Z,100116.06
2023-04-12T11:27:50.793Z,100105.31
2023-04-12T11:32:58.972Z,100105.03
2023-04-12T11:38:06.870Z,100099.44
2023-04-12T11:43:13.367Z,100095.09
2023-04-12T11:48:21.720Z,100089.44
2023-04-12T11:53:31.154Z,100091.78
2023-04-12T11:58:37.874Z,100081.59
2023-04-12T12:03:46.942Z,100079.31
2023-04-12T12:08:54.308Z,100074.06
2023-04-12T12:14:02.092Z,100070.59
2023-04-12T12:19:09.874Z,100062.56
2023-04-12T12:24:16.966Z,100052.69
2023-04-12T12:29:25.448Z,100045.41
2023-04-12T12:34:36.257Z,100027.19
2023-04-12T12:40:14.007Z,100018.44
2023-04-12T12:45:23.177Z,100020.34
2023-04-12T12:50:32.924Z,100007.75
2023-04-12T12:55:39.350Z,99993.13
2023-04-12T13:00:46.275Z,99984.34
2023-04-12T13:05:56.129Z,99980.09
2023-04-12T13:11:03.161Z,99965.97
2023-04-12T13:16:10.473Z,99969.50
2023-04-12T13:21:18.283Z,99967.13
2023-04-12T13:26:26.055Z,99958.09
2023-04-12T13:31:32.466Z,99954.56
2023-04-12T13:36:40.539Z,99954.34
2023-04-12T13:41:46.903Z,99957.47
2023-04-12T13:46:53.395Z,99940.44
2023-04-12T13:52:01.172Z,99953.38
2023-04-12T13:57:08.285Z,99947.34
2023-04-12T14:02:14.922Z,99945.78
2023-04-12T14:07:23.182Z,99951.94
2023-04-12T14:12:29.668Z,99950.22
2023-04-12T14:17:36.119Z,99942.84
2023-04-12T14:22:44.235Z,99940.09
2023-04-12T14:27:50.957Z,99943.38
2023-04-12T14:32:57.380Z,99948.66
2023-04-12T14:38:06.431Z,99959.00
2023-04-12T14:43:12.961Z,99960.78
2023-04-12T14:48:19.571Z,99966.97
2023-04-12T14:53:27.483Z,99961.13
2023-04-12T14:58:35.678Z,99961.72
2023-04-12T15:03:42.861Z,99960.34
2023-04-12T15:08:55.312Z,99968.09
2023-04-12T15:14:02.654Z,99962.78
2023-04-12T15:19:13.979Z,99957.63
2023-04-12T15:24:26.686Z,99950.75
2023-04-12T15:29:36.262Z,99949.88
2023-04-12T15:34:42.705Z,99948.84
2023-04-12T15:39:50.671Z,99941.03
2023-04-12T15:44:56.928Z,99940.31
2023-04-12T15:50:03.388Z,99944.78
2023-04-12T15:55:13.475Z,99938.81
2023-04-12T16:00:26.849Z,99937.19
2023-04-12T16:05:34.454Z,99936.53
2023-04-12T16:10:42.527Z,99934.22
2023-04-12T16:15:49.192Z,99937.81
2023-04-12T16:20:56.211Z,99933.53
2023-04-12T16:26:05.786Z,99927.53
2023-04-12T16:31:16.841Z,99927.66
2023-04-12T16:36:25.876Z,99924.31
2023-04-12T16:41:42.254Z,99919.41
2023-04-12T16:46:50.239Z,99921.22
2023-04-12T16:51:57.765Z,99929.31
2023-04-12T16:57:07.015Z,99932.25
2023-04-12T17:02:14.167Z,99925.56
2023-04-12T17:07:21.376Z,99934.63
2023-04-12T17:12:30.849Z,99938.25
2023-04-12T17:17:39.562Z,99936.78
2023-04-12T17:22:48.000Z,99934.59
2023-04-12T17:28:00.684Z,99942.34
2023-04-12T17:33:08.238Z,99939.31
2023-04-12T17:38:17.513Z,99939.75
2023-04-12T17:43:26.841Z,99948.13
2023-04-12T17:48:36.633Z,99939.94
2023-04-12T17:53:46.577Z,99945.63
2023-04-12T17:58:56.672Z,99947.94
2023-04-12T18:04:06.117Z,99951.72
2023-04-12T18:09:14.829Z,99965.19
2023-04-12T18:14:25.678Z,99954.19
2023-04-12T18:19:34.352Z,99962.00
2023-04-12T18:24:48.703Z,99963.09
2023-04-12T18:29:59.735Z,99962.44
2023-04-12T18:35:10.632Z,99967.47
2023-04-12T18:40:25.311Z,99968.22
2023-04-12T18:45:41.470Z,99978.56
2023-04-12T18:50:52.274Z,99972.66
2023-04-12T18:56:10.610Z,99965.97
2023-04-12T19:01:21.656Z,99966.97
2023-04-12T19:06:32.041Z,99962.81
2023-04-12T19:11:41.609Z,99959.59
2023-04-12T19:17:04.709Z,99952.56
2023-04-12T19:22:13.697Z,99954.13
2023-04-12T19:27:22.648Z,99949.81
2023-04-12T19:32:34.083Z,99947.50
2023-04-12T19:37:44.943Z,99948.53
2023-04-12T19:42:58.546Z,99941.00
2023-04-12T19:48:11.375Z,99939.44
2023-04-12T19:53:22.602Z,99939.16
2023-04-12T19:58:31.991Z,99932.28
2023-04-12T20:03:45.846Z,99929.03
2023-04-12T20:08:56.867Z,99922.25
2023-04-12T20:14:04.796Z,99926.59
2023-04-12T20:19:15.130Z,99916.84
2023-04-12T20:24:25.957Z,99920.69
2023-04-12T20:29:35.645Z,99915.19
2023-04-12T20:34:49.949Z,99912.78
2023-04-12T20:40:00.045Z,99915.28
2023-04-12T20:45:10.110Z,99914.44
2023-04-12T20:50:23.694Z,99911.81
2023-04-12T20:55:36.021Z,99909.25
2023-04-12T21:00:43.827Z,99912.69
2023-04-12T21:05:53.664Z,99911.09
2023-04-12T21:11:00.799Z,99917.59
2023-04-12T21:16:08.789Z,99907.13
2023-04-12T21:21:16.936Z,99916.31
2023-04-12T21:26:23.514Z,99906.81
2023-04-12T21:31:30.950Z,99903.22
2023-04-12T21:36:40.282Z,99902.28
2023-04-12T21:41:47.223Z,99906.13
2023-04-12T21:46:53.959Z,99902.16
2023-04-12T21:52:02.014Z,99894.25
2023-04-12T21:57:08.711Z,99897.13
2023-04-12T22:02:15.833Z,99895.06
2023-04-12T22:07:23.818Z,99900.25
2023-04-12T22:12:30.373Z,99907.78
2023-04-12T22:17:38.006Z,99909.47
2023-04-12T22:22:46.103Z,99896.00
2023-04-12T22:27:53.548Z,99893.19
2023-04-12T22:33:00.313Z,99881.03
2023-04-12T22:38:08.101Z,99876.88
2023-04-12T22:43:18.572Z,99873.59
2023-04-12T22:48:25.312Z,99872.69
2023-04-12T22:53:35.191Z,99866.69
2023-04-12T22:58:43.226Z,99860.03
2023-04-12T23:03:49.945Z,99847.56
2023-04-12T23:09:00.429Z,99852.66
2023-04-12T23:14:08.282Z,99844.84
2023-04-12T23:19:15.278Z,99826.91
2023-04-12T23:24:23.163Z,99820.09
2023-04-12T23:29:29.493Z,99825.16
2023-04-12T23:34:36.657Z,99821.75
2023-04-12T23:39:44.714Z,99824.38
2023-04-12T23:44:51.990Z,99815.75
2023-04-12T23:49:58.163Z,99795.88
2023-04-12T23:55:06.957Z,99801.75
